Time,TemperatureF,DewpointF,PressureIn,WindDirection,WindDirectionDegrees,WindSpeedMPH,WindSpeedGustMPH,Humidity,HourlyPrecipIn,Conditions,Clouds,dailyrainin,SoftwareType,DateUTC
2013-08-10 00:02:00,60.1,51.1,29.91,NE,45,0.0,0.0,72,0.00,,,0.00,LWC V2.10 B1813,2013-08-10 07:02:00,
2013-08-10 00:07:00,60.1,51.1,29.91,ENE,67,0.0,0.0,72,0.00,,,0.00,LWC V2.10 B1813,2013-08-10 07:07:00,
2013-08-10 00:12:00,59.9,50.9,29.92,ENE,67,0.0,0.0,72,0.00,,,0.00,LWC V2.10 B1813,2013-08-10 07:12:00,
2013-08-10 00:17:00,60.1,51.1,29.92,NNE,22,0.0,0.0,72,0.00,,,0.00,LWC V2.10 B1813,2013-08-10 07:17:00,
2013-08-10 00:22:00,59.9,51.3,29.92,ENE,67,0.0,0.0,73,0.00,,,0.00,LWC V2.10 B1813,2013-08-10 07:22:00,
2013-08-10 00:27:00,59.9,51.3,29.92,North,0,0.0,0.0,73,0.00,,,0.00,LWC V2.10 B1813,2013-08-10 07:27:00,
2013-08-10 00:32:00,59.9,51.3,29.92,ESE,112,0.0,0.0,73,0.00,,,0.00,LWC V2.10 B1813,2013-08-10 07:32:00,
2013-08-10 00:37:00,60.1,51.4,29.92,NE,45,0.0,0.0,73,0.00,,,0.00,LWC V2.10 B1813,2013-08-10 07:37:00,
2013-08-10 00:42:00,60.1,51.1,29.92,NNE,22,0.0,0.0,72,0.00,,,0.00,LWC V2.10 B1813,2013-08-10 07:42:00,
2013-08-10 00:47:00,59.9,51.3,29.92,NNW,337,0.0,0.0,73,0.00,,,0.00,LWC V2.10 B1813,2013-08-10 07:47:00,
2013-08-10 00:52:00,59.9,51.3,29.92,NNE,22,0.0,0.0,73,0.00,,,0.00,LWC V2.10 B1813,2013-08-10 07:52:00,
2013-08-10 00:57:00,59.7,51.1,29.92,NW,315,4.7,4.7,73,0.00,,,0.00,LWC V2.10 B1813,2013-08-10 07:57:00,
2013-08-10 01:02:00,59.4,50.7,29.92,East,90,0.0,0.0,73,0.00,,,0.00,LWC V2.10 B1813,2013-08-10 08:02:00,
2013-08-10 01:07:00,59.4,50.7,29.92,NW,315,0.0,0.0,73,0.00,,,0.00,LWC V2.10 B1813,2013-08-10 08:07:00,
2013-08-10 01:12:00,59.4,50.7,29.92,NW,315,0.0,0.0,73,0.00,,,0.00,LWC V2.10 B1813,2013-08-10 08:12:00,
2013-08-10 01:17:00,59.0,50.7,29.92,NNW,337,0.0,0.0,74,0.00,,,0.00,LWC V2.10 B1813,2013-08-10 08:17:00,
2013-08-10 01:22:00,58.8,50.5,29.92,North,0,0.0,0.0,74,0.00,,,0.00,LWC V2.10 B1813,2013-08-10 08:22:00,
2013-08-10 01:27:00,58.8,50.5,29.91,NW,315,0.0,0.0,74,0.00,,,0.00,LWC V2.10 B1813,2013-08-10 08:27:00,
2013-08-10 01:32:00,58.8,50.5,29.91,North,0,0.0,0.0,74,0.00,,,0.00,LWC V2.10 B1813,2013-08-10 08:32:00,
2013-08-10 01:37:00,58.8,50.5,29.91,NNW,337,0.0,0.0,74,0.00,,,0.00,LWC V2.10 B1813,2013-08-10 08:37:00,
2013-08-10 01:42:00,59.0,50.7,29.92,NE,45,0.0,0.0,74,0.00,,,0.00,LWC V2.10 B1813,2013-08-10 08:42:00,
2013-08-10 01:47:00,59.2,50.9,29.91,NNW,337,1.3,1.3,74,0.00,,,0.00,LWC V2.10 B1813,2013-08-10 08:47:00,
2013-08-10 01:52:00,58.8,50.5,29.92,North,0,0.0,0.0,74,0.00,,,0.00,LWC V2.10 B1813,2013-08-10 08:52:00,
2013-08-10 01:57:00,59.0,50.7,29.92,NW,315,0.0,0.0,74,0.00,,,0.00,LWC V2.10 B1813,2013-08-10 08:57:00,
2013-08-10 02:02:00,58.8,50.5,29.92,NNW,337,0.0,0.0,74,0.00,,,0.00,LWC V2.10 B1813,2013-08-10 09:02:00,
2013-08-10 02:07:00,59.0,50.7,29.92,NNW,337,0.0,0.0,74,0.00,,,0.00,LWC V2.10 B1813,2013-08-10 09:07:00,
2013-08-10 02:12:00,59.2,50.9,29.92,NNW,337,2.7,2.7,74,0.00,,,0.00,LWC V2.10 B1813,2013-08-10 09:12:00,
2013-08-10 02:17:00,58.8,50.5,29.92,NW,315,1.8,1.8,74,0.00,,,0.00,LWC V2.10 B1813,2013-08-10 09:17:00,
2013-08-10 02:22:00,58.8,50.5,29.91,North,0,3.8,3.8,74,0.00,,,0.00,LWC V2.10 B1813,2013-08-10 09:22:00,
2013-08-10 02:27:00,58.8,50.9,29.92,WNW,292,0.0,0.0,75,0.00,,,0.00,LWC V2.10 B1813,2013-08-10 09:27:00,
2013-08-10 02:32:00,58.8,50.9,29.92,North,0,4.5,4.5,75,0.00,,,0.00,LWC V2.10 B1813,2013-08-10 09:32:00,
2013-08-10 02:37:00,58.8,50.9,29.91,North,0,0.0,0.0,75,0.00,,,0.00,LWC V2.10 B1813,2013-08-10 09:37:00,
2013-08-10 02:42:00,58.8,50.9,29.92,WNW,292,3.4,3.4,75,0.00,,,0.00,LWC V2.10 B1813,2013-08-10 09:42:00,
2013-08-10 02:47:00,58.8,50.9,29.91,North,0,0.0,0.0,75,0.00,,,0.00,LWC V2.10 B1813,2013-08-10 09:47:00,
2013-08-10 02:52:00,58.8,50.9,29.91,North,0,6.3,6.3,75,0.00,,,0.00,LWC V2.10 B1813,2013-08-10 09:52:00,
2013-08-10 02:57:00,58.8,50.9,29.92,NW,315,0.0,0.0,75,0.00,,,0.00,LWC V2.10 B1813,2013-08-10 09:57:00,
2013-08-10 03:02:00,58.8,50.9,29.92,NW,315,1.1,1.1,75,0.00,,,0.00,LWC V2.10 B1813,2013-08-10 10:02:00,
2013-08-10 03:07:00,58.8,50.9,29.91,NNE,22,0.0,0.0,75,0.00,,,0.00,LWC V2.10 B1813,2013-08-10 10:07:00,
2013-08-10 03:12:00,58.8,50.9,29.91,NNW,337,0.0,0.0,75,0.00,,,0.00,LWC V2.10 B1813,2013-08-10 10:12:00,
2013-08-10 03:17:00,58.8,50.9,29.91,NNW,337,0.0,0.0,75,0.00,,,0.00,LWC V2.10 B1813,2013-08-10 10:17:00,
2013-08-10 03:22:00,58.8,50.9,29.92,NW,315,0.0,0.0,75,0.00,,,0.00,LWC V2.10 B1813,2013-08-10 10:22:00,
2013-08-10 03:27:00,58.8,50.9,29.91,NNW,337,0.0,0.0,75,0.00,,,0.00,LWC V2.10 B1813,2013-08-10 10:27:00,
2013-08-10 03:32:00,58.8,50.9,29.91,NNW,337,0.0,0.0,75,0.00,,,0.00,LWC V2.10 B1813,2013-08-10 10:32:00,
2013-08-10 03:37:00,58.8,50.9,29.91,WNW,292,0.0,0.0,75,0.00,,,0.00,LWC V2.10 B1813,2013-08-10 10:37:00,
2013-08-10 03:42:00,58.8,50.9,29.91,NW,315,0.0,0.0,75,0.00,,,0.00,LWC V2.10 B1813,2013-08-10 10:42:00,
2013-08-10 03:47:00,58.8,50.9,29.91,NNW,337,0.0,0.0,75,0.00,,,0.00,LWC V2.10 B1813,2013-08-10 10:47:00,
2013-08-10 03:52:00,58.8,50.9,29.91,NNW,337,0.0,0.0,75,0.00,,,0.00,LWC V2.10 B1813,2013-08-10 10:52:00,
2013-08-10 03:57:00,58.8,50.9,29.91,NW,315,2.7,2.7,75,0.00,,,0.00,LWC V2.10 B1813,2013-08-10 10:57:00,
2013-08-10 04:02:00,58.8,50.9,29.92,West,270,0.0,0.0,75,0.00,,,0.00,LWC V2.10 B1813,2013-08-10 11:02:00,
2013-08-10 04:07:00,58.8,50.9,29.91,NW,315,0.0,0.0,75,0.00,,,0.00,LWC V2.10 B1813,2013-08-10 11:07:00,
2013-08-10 04:12:00,58.8,50.9,29.92,North,0,0.0,0.0,75,0.00,,,0.00,LWC V2.10 B1813,2013-08-10 11:12:00,
2013-08-10 04:17:00,58.8,50.9,29.91,NW,315,0.0,0.0,75,0.00,,,0.00,LWC V2.10 B1813,2013-08-10 11:17:00,
2013-08-10 04:22:00,58.8,50.9,29.91,NW,315,0.0,0.0,75,0.00,,,0.00,LWC V2.10 B1813,2013-08-10 11:22:00,
2013-08-10 04:27:00,58.8,50.9,29.91,NE,45,0.0,0.0,75,0.00,,,0.00,LWC V2.10 B1813,2013-08-10 11:27:00,
2013-08-10 04:32:00,58.8,50.9,29.91,East,90,0.0,0.0,75,0.00,,,0.00,LWC V2.10 B1813,2013-08-10 11:32:00,
2013-08-10 04:37:00,59.2,51.3,29.91,North,0,0.0,0.0,75,0.00,,,0.00,LWC V2.10 B1813,2013-08-10 11:37:00,
2013-08-10 04:42:00,59.2,51.3,29.91,North,0,0.0,0.0,75,0.00,,,0.00,LWC V2.10 B1813,2013-08-10 11:42:00,
2013-08-10 04:47:00,59.4,51.1,29.91,North,0,0.0,0.0,74,0.00,,,0.00,LWC V2.10 B1813,2013-08-10 11:47:00,
2013-08-10 04:52:00,59.5,51.3,29.91,North,0,0.0,0.0,74,0.00,,,0.00,LWC V2.10 B1813,2013-08-10 11:52:00,
2013-08-10 04:57:00,59.5,51.3,29.91,East,90,0.0,0.0,74,0.00,,,0.00,LWC V2.10 B1813,2013-08-10 11:57:00,
2013-08-10 05:02:00,59.5,51.3,29.91,East,90,0.0,0.0,74,0.00,,,0.00,LWC V2.10 B1813,2013-08-10 12:02:00,
2013-08-10 05:07:00,59.7,51.4,29.91,ESE,112,0.0,0.0,74,0.00,,,0.00,LWC V2.10 B1813,2013-08-10 12:07:00,
2013-08-10 05:12:00,59.5,51.3,29.91,East,90,0.0,0.0,74,0.00,,,0.00,LWC V2.10 B1813,2013-08-10 12:12:00,
2013-08-10 05:17:00,59.7,51.4,29.91,East,90,0.0,0.0,74,0.00,,,0.00,LWC V2.10 B1813,2013-08-10 12:17:00,
2013-08-10 05:22:00,59.7,51.4,29.91,NE,45,0.0,0.0,74,0.00,,,0.00,LWC V2.10 B1813,2013-08-10 12:22:00,
2013-08-10 05:27:00,59.7,51.4,29.91,NE,45,0.0,0.0,74,0.00,,,0.00,LWC V2.10 B1813,2013-08-10 12:27:00,
2013-08-10 05:32:00,59.7,51.4,29.91,NE,45,0.0,0.0,74,0.00,,,0.00,LWC V2.10 B1813,2013-08-10 12:32:00,
2013-08-10 05:37:00,59.7,51.1,29.92,ENE,67,0.0,0.0,73,0.00,,,0.00,LWC V2.10 B1813,2013-08-10 12:37:00,
2013-08-10 05:42:00,59.9,51.6,29.92,ESE,112,0.0,0.0,74,0.00,,,0.00,LWC V2.10 B1813,2013-08-10 12:42:00,
2013-08-10 05:47:00,60.1,51.4,29.92,NE,45,0.0,0.0,73,0.00,,,0.00,LWC V2.10 B1813,2013-08-10 12:47:00,
2013-08-10 05:52:00,60.1,51.4,29.92,ENE,67,0.0,0.0,73,0.00,,,0.00,LWC V2.10 B1813,2013-08-10 12:52:00,
2013-08-10 05:57:00,60.1,51.4,29.92,NW,315,0.0,0.0,73,0.00,,,0.00,LWC V2.10 B1813,2013-08-10 12:57:00,
2013-08-10 06:02:00,60.1,51.4,29.92,NNW,337,0.0,0.0,73,0.00,,,0.00,LWC V2.10 B1813,2013-08-10 13:02:00,
2013-08-10 06:07:00,59.9,51.3,29.92,NNW,337,0.0,0.0,73,0.00,,,0.00,LWC V2.10 B1813,2013-08-10 13:07:00,
2013-08-10 06:12:00,59.9,51.3,29.93,NNW,337,0.0,0.0,73,0.00,,,0.00,LWC V2.10 B1813,2013-08-10 13:12:00,
2013-08-10 06:17:00,59.9,51.3,29.93,NNW,337,0.0,0.0,73,0.00,,,0.00,LWC V2.10 B1813,2013-08-10 13:17:00,
2013-08-10 06:22:00,59.9,51.3,29.93,NNW,337,0.0,0.0,73,0.00,,,0.00,LWC V2.10 B1813,2013-08-10 13:22:00,
2013-08-10 06:27:00,59.9,51.1,29.93,NNW,337,0.0,0.0,73,0.00,,,0.00,LWC V2.10 B1813,2013-08-10 13:27:00,
2013-08-10 06:32:00,59.7,51.1,29.93,WNW,292,0.0,0.0,73,0.00,,,0.00,LWC V2.10 B1813,2013-08-10 13:32:00,
2013-08-10 06:37:00,59.5,51.3,29.93,NNW,337,0.0,0.0,74,0.00,,,0.00,LWC V2.10 B1813,2013-08-10 13:37:00,
2013-08-10 06:42:00,59.5,51.3,29.93,West,270,0.0,0.0,74,0.00,,,0.00,LWC V2.10 B1813,2013-08-10 13:42:00,
2013-08-10 06:47:00,59.4,51.1,29.93,North,0,0.0,0.0,74,0.00,,,0.00,LWC V2.10 B1813,2013-08-10 13:47:00,
2013-08-10 06:52:00,59.4,51.1,29.93,NNW,337,0.0,0.0,74,0.00,,,0.00,LWC V2.10 B1813,2013-08-10 13:52:00,
2013-08-10 06:57:00,59.2,50.9,29.94,WSW,247,0.0,0.0,74,0.00,,,0.00,LWC V2.10 B1813,2013-08-10 13:57:00,
2013-08-10 07:02:00,59.4,51.1,29.94,NW,315,0.0,0.0,74,0.00,,,0.00,LWC V2.10 B1813,2013-08-10 14:02:00,
2013-08-10 07:07:00,59.2,50.9,29.94,WNW,292,3.8,3.8,74,0.00,,,0.00,LWC V2.10 B1813,2013-08-10 14:07:00,
2013-08-10 07:12:00,59.2,50.7,29.94,North,0,0.0,0.0,74,0.00,,,0.00,LWC V2.10 B1813,2013-08-10 14:12:00,
2013-08-10 07:14:00,59.2,50.9,29.94,North,0,0.0,0.0,74,0.00,,,0.00,LWC V2.10 B1813,2013-08-10 14:14:00,
2013-08-10 07:19:00,58.8,50.5,29.94,North,0,0.0,1.8,74,0.00,,,0.00,LWC V2.10 B1813,2013-08-10 14:19:00,
2013-08-10 07:24:00,58.8,50.5,29.94,NNE,22,0.0,0.0,74,0.00,,,0.00,LWC V2.10 B1813,2013-08-10 14:24:00,
2013-08-10 07:29:00,58.8,50.9,29.94,North,0,0.0,0.0,75,0.00,,,0.00,LWC V2.10 B1813,2013-08-10 14:29:00,
2013-08-10 07:34:00,58.8,50.5,29.94,WSW,247,0.0,0.0,74,0.00,,,0.00,LWC V2.10 B1813,2013-08-10 14:34:00,
2013-08-10 07:39:00,59.2,51.3,29.94,North,0,0.0,0.0,75,0.00,,,0.00,LWC V2.10 B1813,2013-08-10 14:39:00,
2013-08-10 07:44:00,59.2,50.9,29.94,North,0,0.0,0.0,74,0.00,,,0.00,LWC V2.10 B1813,2013-08-10 14:44:00,
2013-08-10 07:49:00,59.5,51.3,29.95,North,0,0.0,0.0,74,0.00,,,0.00,LWC V2.10 B1813,2013-08-10 14:49:00,
2013-08-10 07:54:00,59.5,51.3,29.94,NNW,337,0.0,0.0,74,0.00,,,0.00,LWC V2.10 B1813,2013-08-10 14:54:00,
2013-08-10 07:59:00,59.5,51.3,29.95,North,0,0.0,0.0,74,0.00,,,0.00,LWC V2.10 B1813,2013-08-10 14:59:00,
2013-08-10 08:04:00,59.5,51.3,29.95,North,0,0.0,0.0,74,0.00,,,0.00,LWC V2.10 B1813,2013-08-10 15:04:00,
2013-08-10 08:05:00,59.5,51.3,29.95,North,0,0.0,0.0,74,0.00,,,0.00,LWC V2.10 B1813,2013-08-10 15:05:00,
2013-08-10 08:10:00,59.5,51.3,29.95,WNW,292,2.7,2.7,74,0.00,,,0.00,LWC V2.10 B1813,2013-08-10 15:10:00,
2013-08-10 08:15:00,59.7,51.4,29.95,NW,315,0.0,0.0,74,0.00,,,0.00,LWC V2.10 B1813,2013-08-10 15:15:00,
2013-08-10 08:20:00,59.7,51.4,29.95,NNE,22,0.0,0.0,74,0.00,,,0.00,LWC V2.10 B1813,2013-08-10 15:20:00,
2013-08-10 08:25:00,59.9,51.6,29.94,NNE,22,4.2,4.2,74,0.00,,,0.00,LWC V2.10 B1813,2013-08-10 15:25:00,
2013-08-10 08:30:00,60.1,51.4,29.95,North,0,0.0,0.0,73,0.00,,,0.00,LWC V2.10 B1813,2013-08-10 15:30:00,
2013-08-10 08:35:00,60.1,51.4,29.95,NNE,22,0.0,0.0,73,0.00,,,0.00,LWC V2.10 B1813,2013-08-10 15:35:00,
2013-08-10 08:40:00,60.6,52.0,29.95,NNW,337,0.0,0.0,73,0.00,,,0.00,LWC V2.10 B1813,2013-08-10 15:40:00,
2013-08-10 08:45:00,60.6,52.0,29.95,North,0,4.5,4.5,73,0.00,,,0.00,LWC V2.10 B1813,2013-08-10 15:45:00,
2013-08-10 08:50:00,61.0,52.3,29.95,NNE,22,0.0,0.0,73,0.00,,,0.00,LWC V2.10 B1813,2013-08-10 15:50:00,
2013-08-10 08:55:00,61.3,52.3,29.95,WNW,292,0.0,0.0,72,0.00,,,0.00,LWC V2.10 B1813,2013-08-10 15:55:00,
2013-08-10 09:00:00,61.9,52.8,29.96,North,0,5.6,5.6,72,0.00,,,0.00,LWC V2.10 B1813,2013-08-10 16:00:00,
2013-08-10 09:05:00,62.6,53.4,29.96,NW,315,0.0,0.0,72,0.00,,,0.00,LWC V2.10 B1813,2013-08-10 16:05:00,
2013-08-10 09:10:00,63.1,53.2,29.96,North,0,2.9,9.4,70,0.00,,,0.00,LWC V2.10 B1813,2013-08-10 16:10:00,
2013-08-10 09:15:00,63.5,53.2,29.95,North,0,3.6,3.6,69,0.00,,,0.00,LWC V2.10 B1813,2013-08-10 16:15:00,
2013-08-10 09:20:00,63.7,53.3,29.95,NW,315,7.2,7.2,69,0.00,,,0.00,LWC V2.10 B1813,2013-08-10 16:20:00,
2013-08-10 09:25:00,64.0,53.7,29.95,North,0,2.2,7.2,69,0.00,,,0.00,LWC V2.10 B1813,2013-08-10 16:25:00,
2013-08-10 09:30:00,64.2,53.5,29.95,North,0,0.0,0.0,68,0.00,,,0.00,LWC V2.10 B1813,2013-08-10 16:30:00,
2013-08-10 09:35:00,64.6,53.8,29.95,NNE,22,6.0,6.0,68,0.00,,,0.00,LWC V2.10 B1813,2013-08-10 16:35:00,
2013-08-10 09:40:00,64.8,53.5,29.95,North,0,0.0,0.0,67,0.00,,,0.00,LWC V2.10 B1813,2013-08-10 16:40:00,
2013-08-10 09:45:00,64.8,53.5,29.95,NNW,337,7.6,7.6,67,0.00,,,0.00,LWC V2.10 B1813,2013-08-10 16:45:00,
2013-08-10 09:50:00,64.8,53.5,29.95,NW,315,2.2,2.2,67,0.00,,,0.00,LWC V2.10 B1813,2013-08-10 16:50:00,
2013-08-10 09:55:00,64.9,53.7,29.95,North,0,0.0,0.2,67,0.00,,,0.00,LWC V2.10 B1813,2013-08-10 16:55:00,
2013-08-10 10:00:00,65.1,53.4,29.96,NE,45,2.0,2.0,66,0.00,,,0.00,LWC V2.10 B1813,2013-08-10 17:00:00,
2013-08-10 10:05:00,65.3,53.6,29.96,NNW,337,3.8,3.8,66,0.00,,,0.00,LWC V2.10 B1813,2013-08-10 17:05:00,
2013-08-10 10:10:00,65.8,54.1,29.95,NE,45,4.9,4.9,66,0.00,,,0.00,LWC V2.10 B1813,2013-08-10 17:10:00,
2013-08-10 10:15:00,66.0,53.9,29.96,NE,45,0.0,0.0,65,0.00,,,0.00,LWC V2.10 B1813,2013-08-10 17:15:00,
2013-08-10 10:20:00,66.2,54.0,29.96,North,0,0.0,0.0,65,0.00,,,0.00,LWC V2.10 B1813,2013-08-10 17:20:00,
2013-08-10 10:25:00,66.7,54.1,29.96,NNW,337,2.0,2.0,64,0.00,,,0.00,LWC V2.10 B1813,2013-08-10 17:25:00,
2013-08-10 10:30:00,66.9,54.3,29.96,West,270,0.0,0.0,64,0.00,,,0.00,LWC V2.10 B1813,2013-08-10 17:30:00,
2013-08-10 10:35:00,67.1,54.5,29.96,NNE,22,0.0,0.0,64,0.00,,,0.00,LWC V2.10 B1813,2013-08-10 17:35:00,
2013-08-10 10:40:00,67.8,54.7,29.96,ENE,67,0.0,0.0,63,0.00,,,0.00,LWC V2.10 B1813,2013-08-10 17:40:00,
2013-08-10 10:45:00,67.8,54.7,29.96,ENE,67,0.0,0.0,63,0.00,,,0.00,LWC V2.10 B1813,2013-08-10 17:45:00,
2013-08-10 10:50:00,68.5,55.4,29.96,NE,45,4.0,4.0,63,0.00,,,0.00,LWC V2.10 B1813,2013-08-10 17:50:00,
2013-08-10 10:55:00,69.6,56.5,29.96,ENE,67,5.1,6.0,63,0.00,,,0.00,LWC V2.10 B1813,2013-08-10 17:55:00,
2013-08-10 11:00:00,70.2,56.6,29.96,ENE,67,0.0,0.0,62,0.00,,,0.00,LWC V2.10 B1813,2013-08-10 18:00:00,
2013-08-10 11:05:00,70.5,56.5,29.97,ESE,112,5.6,5.6,61,0.00,,,0.00,LWC V2.10 B1813,2013-08-10 18:05:00,
2013-08-10 11:10:00,70.9,56.8,29.97,ENE,67,10.1,10.1,61,0.00,,,0.00,LWC V2.10 B1813,2013-08-10 18:10:00,
2013-08-10 11:15:00,71.2,56.7,29.97,ENE,67,3.8,3.8,60,0.00,,,0.00,LWC V2.10 B1813,2013-08-10 18:15:00,
2013-08-10 11:20:00,71.6,57.0,29.97,ENE,67,4.9,4.9,60,0.00,,,0.00,LWC V2.10 B1813,2013-08-10 18:20:00,
2013-08-10 11:25:00,72.0,57.3,29.97,ENE,67,0.0,2.0,60,0.00,,,0.00,LWC V2.10 B1813,2013-08-10 18:25:00,
2013-08-10 11:30:00,72.1,57.0,29.97,ESE,112,6.9,6.9,59,0.00,,,0.00,LWC V2.10 B1813,2013-08-10 18:30:00,
2013-08-10 11:35:00,72.3,57.2,29.97,ENE,67,6.7,6.7,59,0.00,,,0.00,LWC V2.10 B1813,2013-08-10 18:35:00,
2013-08-10 11:40:00,72.7,57.5,29.97,ENE,67,7.4,7.4,59,0.00,,,0.00,LWC V2.10 B1813,2013-08-10 18:40:00,
2013-08-10 11:45:00,73.0,57.3,29.97,ENE,67,5.4,5.4,58,0.00,,,0.00,LWC V2.10 B1813,2013-08-10 18:45:00,
2013-08-10 11:50:00,73.0,57.3,29.96,NE,45,4.2,4.2,58,0.00,,,0.00,LWC V2.10 B1813,2013-08-10 18:50:00,
2013-08-10 11:55:00,73.2,57.0,29.96,ENE,67,5.4,7.2,57,0.00,,,0.00,LWC V2.10 B1813,2013-08-10 18:55:00,
2013-08-10 12:00:00,73.4,57.1,29.96,East,90,6.9,6.9,57,0.00,,,0.00,LWC V2.10 B1813,2013-08-10 19:00:00,
2013-08-10 12:05:00,73.8,57.5,29.95,ENE,67,4.5,4.5,57,0.00,,,0.00,LWC V2.10 B1813,2013-08-10 19:05:00,
2013-08-10 12:10:00,74.3,58.0,29.96,NE,45,0.0,3.4,57,0.00,,,0.00,LWC V2.10 B1813,2013-08-10 19:10:00,
2013-08-10 12:15:00,74.5,57.7,29.95,ENE,67,3.8,3.8,56,0.00,,,0.00,LWC V2.10 B1813,2013-08-10 19:15:00,
2013-08-10 12:20:00,74.8,58.2,29.95,ESE,112,6.3,6.3,56,0.00,,,0.00,LWC V2.10 B1813,2013-08-10 19:20:00,
2013-08-10 12:25:00,75.6,58.2,29.95,ESE,112,1.6,1.6,55,0.00,,,0.00,LWC V2.10 B1813,2013-08-10 19:25:00,
2013-08-10 12:30:00,75.7,57.9,29.95,ENE,67,2.5,2.5,54,0.00,,,0.00,LWC V2.10 B1813,2013-08-10 19:30:00,
2013-08-10 12:35:00,75.6,57.7,29.95,NE,45,3.4,3.4,54,0.00,,,0.00,LWC V2.10 B1813,2013-08-10 19:35:00,
2013-08-10 12:40:00,75.7,58.4,29.95,ENE,67,2.7,6.7,55,0.00,,,0.00,LWC V2.10 B1813,2013-08-10 19:40:00,
2013-08-10 12:45:00,75.7,57.9,29.95,NE,45,2.7,2.7,54,0.00,,,0.00,LWC V2.10 B1813,2013-08-10 19:45:00,
2013-08-10 12:50:00,75.9,58.1,29.95,ENE,67,2.0,4.9,55,0.00,,,0.00,LWC V2.10 B1813,2013-08-10 19:50:00,
2013-08-10 12:55:00,75.7,57.9,29.95,ENE,67,2.2,4.7,54,0.00,,,0.00,LWC V2.10 B1813,2013-08-10 19:55:00,
2013-08-10 13:00:00,75.9,58.1,29.95,ENE,67,7.4,7.4,54,0.00,,,0.00,LWC V2.10 B1813,2013-08-10 20:00:00,
2013-08-10 13:05:00,76.1,58.2,29.95,NE,45,1.1,1.1,54,0.00,,,0.00,LWC V2.10 B1813,2013-08-10 20:05:00,
2013-08-10 13:10:00,76.6,58.7,29.95,ESE,112,0.0,3.6,54,0.00,,,0.00,LWC V2.10 B1813,2013-08-10 20:10:00,
2013-08-10 13:15:00,76.6,58.2,29.95,ENE,67,5.6,5.6,53,0.00,,,0.00,LWC V2.10 B1813,2013-08-10 20:15:00,
2013-08-10 13:20:00,76.1,57.7,29.94,NE,45,4.5,4.5,53,0.00,,,0.00,LWC V2.10 B1813,2013-08-10 20:20:00,
2013-08-10 13:25:00,76.1,57.7,29.94,ENE,67,0.0,5.1,53,0.00,,,0.00,LWC V2.10 B1813,2013-08-10 20:25:00,
2013-08-10 13:30:00,76.3,57.9,29.94,NE,45,4.7,4.7,53,0.00,,,0.00,LWC V2.10 B1813,2013-08-10 20:30:00,
2013-08-10 13:35:00,76.3,58.2,29.94,ENE,67,4.5,7.6,53,0.00,,,0.00,LWC V2.10 B1813,2013-08-10 20:35:00,
2013-08-10 13:40:00,76.8,58.4,29.94,NE,45,0.0,0.0,53,0.00,,,0.00,LWC V2.10 B1813,2013-08-10 20:40:00,
2013-08-10 13:45:00,77.2,58.7,29.94,ENE,67,2.9,2.9,53,0.00,,,0.00,LWC V2.10 B1813,2013-08-10 20:45:00,
2013-08-10 13:50:00,77.5,58.5,29.94,East,90,6.5,6.5,52,0.00,,,0.00,LWC V2.10 B1813,2013-08-10 20:50:00,
2013-08-10 13:55:00,77.7,58.7,29.94,East,90,3.6,3.6,52,0.00,,,0.00,LWC V2.10 B1813,2013-08-10 20:55:00,
2013-08-10 14:00:00,78.3,59.2,29.94,ENE,67,6.3,6.3,52,0.00,,,0.00,LWC V2.10 B1813,2013-08-10 21:00:00,
2013-08-10 14:05:00,78.3,58.5,29.94,NE,45,3.6,8.5,51,0.00,,,0.00,LWC V2.10 B1813,2013-08-10 21:05:00,
2013-08-10 14:10:00,78.4,58.8,29.94,East,90,2.0,2.0,51,0.00,,,0.00,LWC V2.10 B1813,2013-08-10 21:10:00,
2013-08-10 14:15:00,78.4,58.8,29.94,NE,45,2.2,2.2,51,0.00,,,0.00,LWC V2.10 B1813,2013-08-10 21:15:00,
2013-08-10 14:20:00,78.4,58.8,29.94,ENE,67,5.8,6.5,51,0.00,,,0.00,LWC V2.10 B1813,2013-08-10 21:20:00,
2013-08-10 14:25:00,78.4,58.8,29.94,NE,45,7.6,7.6,51,0.00,,,0.00,LWC V2.10 B1813,2013-08-10 21:25:00,
2013-08-10 14:30:00,78.4,58.8,29.94,East,90,2.5,2.5,51,0.00,,,0.00,LWC V2.10 B1813,2013-08-10 21:30:00,
2013-08-10 14:35:00,78.4,58.8,29.94,NE,45,0.0,6.9,51,0.00,,,0.00,LWC V2.10 B1813,2013-08-10 21:35:00,
2013-08-10 14:40:00,78.6,59.0,29.94,ENE,67,0.0,0.0,51,0.00,,,0.00,LWC V2.10 B1813,2013-08-10 21:40:00,
2013-08-10 14:45:00,78.6,59.0,29.94,East,90,7.2,7.2,51,0.00,,,0.00,LWC V2.10 B1813,2013-08-10 21:45:00,
2013-08-10 14:50:00,79.0,59.0,29.93,ENE,67,8.9,8.9,51,0.00,,,0.00,LWC V2.10 B1813,2013-08-10 21:50:00,
2013-08-10 14:55:00,79.0,58.8,29.93,ENE,67,0.0,0.0,50,0.00,,,0.00,LWC V2.10 B1813,2013-08-10 21:55:00,
2013-08-10 15:00:00,79.2,59.0,29.93,NE,45,4.7,4.7,50,0.00,,,0.00,LWC V2.10 B1813,2013-08-10 22:00:00,
2013-08-10 15:05:00,79.3,59.1,29.93,ENE,67,3.1,3.1,50,0.00,,,0.00,LWC V2.10 B1813,2013-08-10 22:05:00,
2013-08-10 15:10:00,79.3,59.1,29.92,ENE,67,0.0,0.0,50,0.00,,,0.00,LWC V2.10 B1813,2013-08-10 22:10:00,
2013-08-10 15:15:00,79.5,59.3,29.92,ENE,67,5.8,5.8,50,0.00,,,0.00,LWC V2.10 B1813,2013-08-10 22:15:00,
2013-08-10 15:20:00,79.5,59.3,29.92,ENE,67,2.2,6.0,50,0.00,,,0.00,LWC V2.10 B1813,2013-08-10 22:20:00,
2013-08-10 15:25:00,79.5,58.7,29.92,ENE,67,0.2,0.2,49,0.00,,,0.00,LWC V2.10 B1813,2013-08-10 22:25:00,
2013-08-10 15:30:00,79.5,59.3,29.92,ENE,67,3.6,3.6,50,0.00,,,0.00,LWC V2.10 B1813,2013-08-10 22:30:00,
2013-08-10 15:35:00,79.9,59.0,29.92,ENE,67,0.0,3.8,49,0.00,,,0.00,LWC V2.10 B1813,2013-08-10 22:35:00,
2013-08-10 15:40:00,79.9,59.0,29.92,ENE,67,3.1,3.1,49,0.00,,,0.00,LWC V2.10 B1813,2013-08-10 22:40:00,
2013-08-10 15:45:00,79.9,59.0,29.92,NE,45,1.3,1.3,49,0.00,,,0.00,LWC V2.10 B1813,2013-08-10 22:45:00,
2013-08-10 15:50:00,79.9,58.4,29.92,NE,45,4.2,4.2,49,0.00,,,0.00,LWC V2.10 B1813,2013-08-10 22:50:00,
2013-08-10 15:55:00,79.7,57.6,29.92,NW,315,0.0,0.0,47,0.00,,,0.00,LWC V2.10 B1813,2013-08-10 22:55:00,
2013-08-10 16:00:00,79.7,57.6,29.92,ENE,67,4.7,4.7,47,0.00,,,0.00,LWC V2.10 B1813,2013-08-10 23:00:00,
2013-08-10 16:05:00,79.5,57.5,29.92,NNW,337,4.2,4.2,47,0.00,,,0.00,LWC V2.10 B1813,2013-08-10 23:05:00,
2013-08-10 16:10:00,79.3,57.3,29.92,NW,315,0.0,0.0,47,0.00,,,0.00,LWC V2.10 B1813,2013-08-10 23:10:00,
2013-08-10 16:15:00,79.3,57.3,29.92,North,0,1.8,1.8,47,0.00,,,0.00,LWC V2.10 B1813,2013-08-10 23:15:00,
2013-08-10 16:20:00,79.3,57.3,29.92,ENE,67,0.0,0.0,47,0.00,,,0.00,LWC V2.10 B1813,2013-08-10 23:20:00,
2013-08-10 16:25:00,79.2,57.1,29.92,NNW,337,5.6,5.6,47,0.00,,,0.00,LWC V2.10 B1813,2013-08-10 23:25:00,
2013-08-10 16:30:00,79.0,57.0,29.92,North,0,6.0,6.0,47,0.00,,,0.00,LWC V2.10 B1813,2013-08-10 23:30:00,
2013-08-10 16:35:00,78.6,57.3,29.91,North,0,1.3,1.6,48,0.00,,,0.00,LWC V2.10 B1813,2013-08-10 23:35:00,
2013-08-10 16:40:00,78.4,57.1,29.91,WNW,292,0.0,0.0,48,0.00,,,0.00,LWC V2.10 B1813,2013-08-10 23:40:00,
2013-08-10 16:45:00,78.4,57.1,29.91,NNW,337,10.1,10.1,48,0.00,,,0.00,LWC V2.10 B1813,2013-08-10 23:45:00,
2013-08-10 16:50:00,78.1,56.8,29.92,WNW,292,0.0,2.2,48,0.00,,,0.00,LWC V2.10 B1813,2013-08-10 23:50:00,
2013-08-10 16:55:00,77.7,56.4,29.92,West,270,1.1,1.1,48,0.00,,,0.00,LWC V2.10 B1813,2013-08-10 23:55:00,
2013-08-10 17:00:00,77.5,56.9,29.92,NNE,22,4.7,4.7,49,0.00,,,0.00,LWC V2.10 B1813,2013-08-11 00:00:00,
2013-08-10 17:05:00,77.4,56.7,29.92,North,0,2.5,2.5,49,0.00,,,0.00,LWC V2.10 B1813,2013-08-11 00:05:00,
2013-08-10 17:10:00,77.0,56.4,29.92,NNW,337,3.6,3.6,49,0.00,,,0.00,LWC V2.10 B1813,2013-08-11 00:10:00,
2013-08-10 17:15:00,76.8,56.9,29.92,NNE,22,0.9,0.9,50,0.00,,,0.00,LWC V2.10 B1813,2013-08-11 00:15:00,
2013-08-10 17:20:00,76.3,56.4,29.92,WNW,292,4.7,4.7,50,0.00,,,0.00,LWC V2.10 B1813,2013-08-11 00:20:00,
2013-08-10 17:25:00,75.9,56.0,29.92,West,270,1.3,1.3,50,0.00,,,0.00,LWC V2.10 B1813,2013-08-11 00:25:00,
2013-08-10 17:30:00,75.7,56.4,29.93,NE,45,0.9,0.9,51,0.00,,,0.00,LWC V2.10 B1813,2013-08-11 00:30:00,
2013-08-10 17:35:00,75.4,56.1,29.93,NNW,337,4.9,4.9,51,0.00,,,0.00,LWC V2.10 B1813,2013-08-11 00:35:00,
2013-08-10 17:40:00,75.2,56.4,29.93,North,0,9.4,9.4,52,0.00,,,0.00,LWC V2.10 B1813,2013-08-11 00:40:00,
2013-08-10 17:45:00,74.8,56.0,29.92,NW,315,6.9,6.9,52,0.00,,,0.00,LWC V2.10 B1813,2013-08-11 00:45:00,
2013-08-10 17:50:00,74.3,56.0,29.93,North,0,8.7,11.2,53,0.00,,,0.00,LWC V2.10 B1813,2013-08-11 00:50:00,
2013-08-10 17:55:00,73.9,55.7,29.93,NNW,337,9.2,9.2,53,0.00,,,0.00,LWC V2.10 B1813,2013-08-11 00:55:00,
2013-08-10 18:00:00,73.9,56.0,29.92,NW,315,0.0,0.0,54,0.00,,,0.00,LWC V2.10 B1813,2013-08-11 01:00:00,
2013-08-10 18:05:00,73.6,55.8,29.92,NW,315,1.1,1.1,54,0.00,,,0.00,LWC V2.10 B1813,2013-08-11 01:05:00,
2013-08-10 18:10:00,73.6,55.8,29.92,NW,315,2.9,2.9,54,0.00,,,0.00,LWC V2.10 B1813,2013-08-11 01:10:00,
2013-08-10 18:15:00,73.6,56.3,29.92,NW,315,12.5,12.5,55,0.00,,,0.00,LWC V2.10 B1813,2013-08-11 01:15:00,
2013-08-10 18:20:00,73.2,55.5,29.92,WNW,292,0.0,0.0,54,0.00,,,0.00,LWC V2.10 B1813,2013-08-11 01:20:00,
2013-08-10 18:25:00,73.0,55.8,29.92,WNW,292,2.0,2.0,55,0.00,,,0.00,LWC V2.10 B1813,2013-08-11 01:25:00,
2013-08-10 18:30:00,72.9,55.6,29.92,West,270,0.0,0.0,55,0.00,,,0.00,LWC V2.10 B1813,2013-08-11 01:30:00,
2013-08-10 18:35:00,72.5,55.3,29.91,NW,315,0.0,0.0,55,0.00,,,0.00,LWC V2.10 B1813,2013-08-11 01:35:00,
2013-08-10 18:40:00,72.1,55.5,29.92,NNE,22,0.0,0.0,56,0.00,,,0.00,LWC V2.10 B1813,2013-08-11 01:40:00,
2013-08-10 18:45:00,71.2,55.3,29.91,NW,315,2.9,2.9,57,0.00,,,0.00,LWC V2.10 B1813,2013-08-11 01:45:00,
2013-08-10 18:50:00,70.9,55.4,29.92,North,0,5.6,5.6,58,0.00,,,0.00,LWC V2.10 B1813,2013-08-11 01:50:00,
2013-08-10 18:55:00,70.5,55.0,29.92,WNW,292,0.0,0.0,58,0.00,,,0.00,LWC V2.10 B1813,2013-08-11 01:55:00,
2013-08-10 19:00:00,70.3,54.9,29.92,NNE,22,0.0,4.0,58,0.00,,,0.00,LWC V2.10 B1813,2013-08-11 02:00:00,
2013-08-10 19:05:00,69.6,54.7,29.91,NNW,337,0.0,2.2,59,0.00,,,0.00,LWC V2.10 B1813,2013-08-11 02:05:00,
2013-08-10 19:10:00,69.1,54.7,29.91,NNW,337,8.9,8.9,60,0.00,,,0.00,LWC V2.10 B1813,2013-08-11 02:10:00,
2013-08-10 19:15:00,68.5,54.1,29.91,North,0,2.0,2.0,60,0.00,,,0.00,LWC V2.10 B1813,2013-08-11 02:15:00,
2013-08-10 19:20:00,67.8,53.9,29.91,NNW,337,0.0,5.4,61,0.00,,,0.00,LWC V2.10 B1813,2013-08-11 02:20:00,
2013-08-10 19:25:00,67.8,54.3,29.92,WNW,292,0.0,0.0,62,0.00,,,0.00,LWC V2.10 B1813,2013-08-11 02:25:00,
2013-08-10 19:30:00,67.3,54.1,29.91,NE,45,0.0,0.0,62,0.00,,,0.00,LWC V2.10 B1813,2013-08-11 02:30:00,
2013-08-10 19:35:00,66.9,53.5,29.92,NNW,337,5.4,5.4,62,0.00,,,0.00,LWC V2.10 B1813,2013-08-11 02:35:00,
2013-08-10 19:40:00,66.7,53.7,29.92,NNW,337,0.0,0.0,63,0.00,,,0.00,LWC V2.10 B1813,2013-08-11 02:40:00,
2013-08-10 19:45:00,66.4,53.4,29.92,North,0,0.0,0.0,63,0.00,,,0.00,LWC V2.10 B1813,2013-08-11 02:45:00,
2013-08-10 19:50:00,66.0,53.5,29.92,SSW,202,0.0,0.0,64,0.00,,,0.00,LWC V2.10 B1813,2013-08-11 02:50:00,
2013-08-10 19:55:00,65.8,53.3,29.92,WNW,292,0.2,0.2,64,0.00,,,0.00,LWC V2.10 B1813,2013-08-11 02:55:00,
2013-08-10 20:00:00,65.8,53.7,29.92,West,270,0.0,0.0,65,0.00,,,0.00,LWC V2.10 B1813,2013-08-11 03:00:00,
2013-08-10 20:05:00,65.5,53.4,29.92,WNW,292,6.7,6.7,65,0.00,,,0.00,LWC V2.10 B1813,2013-08-11 03:05:00,
2013-08-10 20:10:00,65.1,53.4,29.92,SW,225,4.2,4.2,66,0.00,,,0.00,LWC V2.10 B1813,2013-08-11 03:10:00,
2013-08-10 20:15:00,64.9,53.1,29.93,North,0,0.0,0.0,66,0.00,,,0.00,LWC V2.10 B1813,2013-08-11 03:15:00,
2013-08-10 20:20:00,64.6,52.9,29.92,NNW,337,0.0,0.0,66,0.00,,,0.00,LWC V2.10 B1813,2013-08-11 03:20:00,
2013-08-10 20:25:00,64.2,53.0,29.92,NE,45,0.0,0.0,67,0.00,,,0.00,LWC V2.10 B1813,2013-08-11 03:25:00,
2013-08-10 20:30:00,64.0,52.8,29.92,NNW,337,0.0,0.0,67,0.00,,,0.00,LWC V2.10 B1813,2013-08-11 03:30:00,
2013-08-10 20:35:00,64.0,53.3,29.92,ESE,112,0.0,0.0,68,0.00,,,0.00,LWC V2.10 B1813,2013-08-11 03:35:00,
2013-08-10 20:40:00,63.9,53.1,29.92,ENE,67,0.0,0.0,68,0.00,,,0.00,LWC V2.10 B1813,2013-08-11 03:40:00,
2013-08-10 20:45:00,63.9,53.1,29.92,ENE,67,0.0,0.0,68,0.00,,,0.00,LWC V2.10 B1813,2013-08-11 03:45:00,
2013-08-10 20:50:00,64.0,53.3,29.93,NE,45,0.0,0.0,68,0.00,,,0.00,LWC V2.10 B1813,2013-08-11 03:50:00,
2013-08-10 20:55:00,64.0,53.3,29.93,NNW,337,3.8,3.8,68,0.00,,,0.00,LWC V2.10 B1813,2013-08-11 03:55:00,
2013-08-10 21:00:00,63.7,52.9,29.93,North,0,1.6,1.6,68,0.00,,,0.00,LWC V2.10 B1813,2013-08-11 04:00:00,
2013-08-10 21:01:00,63.7,52.9,29.93,North,0,1.6,1.6,68,0.00,,,0.00,LWC V2.10 B1813,2013-08-11 04:01:00,
2013-08-10 21:06:00,63.5,53.2,29.93,NNW,337,0.0,0.0,69,0.00,,,0.00,LWC V2.10 B1813,2013-08-11 04:06:00,
2013-08-10 21:11:00,63.3,53.0,29.93,NNW,337,0.0,0.0,69,0.00,,,0.00,LWC V2.10 B1813,2013-08-11 04:11:00,
2013-08-10 21:16:00,63.3,53.0,29.94,North,0,1.1,1.1,69,0.00,,,0.00,LWC V2.10 B1813,2013-08-11 04:16:00,
2013-08-10 21:21:00,63.3,53.0,29.94,NNW,337,0.0,0.0,69,0.00,,,0.00,LWC V2.10 B1813,2013-08-11 04:21:00,
2013-08-10 21:26:00,63.3,53.0,29.94,NNW,337,0.0,0.0,69,0.00,,,0.00,LWC V2.10 B1813,2013-08-11 04:26:00,
2013-08-10 21:31:00,63.1,52.8,29.94,NNW,337,0.0,0.0,69,0.00,,,0.00,LWC V2.10 B1813,2013-08-11 04:31:00,
2013-08-10 21:36:00,63.0,52.6,29.94,NNW,337,0.0,0.0,69,0.00,,,0.00,LWC V2.10 B1813,2013-08-11 04:36:00,
2013-08-10 21:41:00,62.8,52.9,29.94,NE,45,0.0,0.0,70,0.00,,,0.00,LWC V2.10 B1813,2013-08-11 04:41:00,
2013-08-10 21:46:00,62.4,52.5,29.94,NNW,337,0.0,0.0,70,0.00,,,0.00,LWC V2.10 B1813,2013-08-11 04:46:00,
2013-08-10 21:51:00,62.4,52.5,29.94,North,0,0.0,0.0,70,0.00,,,0.00,LWC V2.10 B1813,2013-08-11 04:51:00,
2013-08-10 21:56:00,62.2,52.7,29.94,NNW,337,3.1,3.1,71,0.00,,,0.00,LWC V2.10 B1813,2013-08-11 04:56:00,
2013-08-10 22:02:00,62.2,52.7,29.94,NE,45,0.0,0.0,71,0.00,,,0.00,LWC V2.10 B1813,2013-08-11 05:02:00,
2013-08-10 22:07:00,62.2,52.7,29.94,NNW,337,0.0,0.0,71,0.00,,,0.00,LWC V2.10 B1813,2013-08-11 05:07:00,
2013-08-10 22:12:00,62.2,52.7,29.94,NNE,22,0.0,0.0,71,0.00,,,0.00,LWC V2.10 B1813,2013-08-11 05:12:00,
2013-08-10 22:17:00,61.9,52.4,29.94,NNE,22,6.5,6.5,71,0.00,,,0.00,LWC V2.10 B1813,2013-08-11 05:17:00,
2013-08-10 22:22:00,61.7,52.2,29.94,North,0,0.0,0.0,71,0.00,,,0.00,LWC V2.10 B1813,2013-08-11 05:22:00,
2013-08-10 22:27:00,61.5,52.4,29.94,NE,45,0.7,0.7,72,0.00,,,0.00,LWC V2.10 B1813,2013-08-11 05:27:00,
2013-08-10 22:32:00,61.3,52.3,29.94,NW,315,0.0,0.0,72,0.00,,,0.00,LWC V2.10 B1813,2013-08-11 05:32:00,
2013-08-10 22:37:00,61.2,52.6,29.94,NNW,337,0.0,0.0,73,0.00,,,0.00,LWC V2.10 B1813,2013-08-11 05:37:00,
2013-08-10 22:42:00,61.2,52.5,29.94,NNW,337,1.8,1.8,73,0.00,,,0.00,LWC V2.10 B1813,2013-08-11 05:42:00,
2013-08-10 22:47:00,61.0,52.3,29.94,NNE,22,0.0,0.0,73,0.00,,,0.00,LWC V2.10 B1813,2013-08-11 05:47:00,
2013-08-10 22:52:00,61.0,52.3,29.94,WNW,292,0.0,0.0,73,0.00,,,0.00,LWC V2.10 B1813,2013-08-11 05:52:00,
2013-08-10 22:57:00,61.0,52.3,29.94,WNW,292,3.8,3.8,73,0.00,,,0.00,LWC V2.10 B1813,2013-08-11 05:57:00,
2013-08-10 23:02:00,61.0,52.7,29.94,NW,315,0.0,0.0,74,0.00,,,0.00,LWC V2.10 B1813,2013-08-11 06:02:00,
2013-08-10 23:07:00,61.0,52.7,29.94,NNW,337,0.0,0.0,74,0.00,,,0.00,LWC V2.10 B1813,2013-08-11 06:07:00,
2013-08-10 23:12:00,61.0,52.7,29.94,SW,225,0.0,0.0,74,0.00,,,0.00,LWC V2.10 B1813,2013-08-11 06:12:00,
2013-08-10 23:17:00,61.0,52.7,29.94,North,0,0.0,0.0,74,0.00,,,0.00,LWC V2.10 B1813,2013-08-11 06:17:00,
2013-08-10 23:22:00,61.0,52.7,29.94,NW,315,0.0,0.0,74,0.00,,,0.00,LWC V2.10 B1813,2013-08-11 06:22:00,
2013-08-10 23:27:00,60.8,52.2,29.94,WNW,292,0.0,0.0,73,0.00,,,0.00,LWC V2.10 B1813,2013-08-11 06:27:00,
2013-08-10 23:32:00,60.6,52.0,29.94,NW,315,0.0,0.0,73,0.00,,,0.00,LWC V2.10 B1813,2013-08-11 06:32:00,
2013-08-10 23:37:00,60.6,52.0,29.94,West,270,0.0,0.0,73,0.00,,,0.00,LWC V2.10 B1813,2013-08-11 06:37:00,
2013-08-10 23:42:00,60.8,52.2,29.94,West,270,0.0,1.1,73,0.00,,,0.00,LWC V2.10 B1813,2013-08-11 06:42:00,
2013-08-10 23:47:00,61.0,52.3,29.94,West,270,0.0,0.0,73,0.00,,,0.00,LWC V2.10 B1813,2013-08-11 06:47:00,
2013-08-10 23:52:00,61.0,52.3,29.94,West,270,0.0,0.0,73,0.00,,,0.00,LWC V2.10 B1813,2013-08-11 06:52:00,
2013-08-10 23:57:00,61.0,52.3,29.94,WNW,292,0.0,0.0,73,0.00,,,0.00,LWC V2.10 B1813,2013-08-11 06:57:00,